Accueil
METAR-TAF:

METAR-TAF

Aéroports :

Kunming, Chine

Aéroport international de Kunming Changshui

latitude: 25-01N, longitude: 102-41E, altitude: 1892 m

Observation

Le bulletin a été fait il y a 27 minutes, à 15:00 UTC
Vent 8 kt de sud/sud-ouest
Température 18°C
Humidité 88%
Pression 1022 hPa
Visibilité 10 km ou plus
pas de nuages en-dessous de 1500 mètres et pas de cumulonimbus.

METAR: ZPPP 191500Z 21004MPS CAVOK 18/16 Q1022 NOSIG

Heure: 23:27 (15:27 UTC)

Prévision

Le bulletin a été fait il y a 8 heures et 23 minutes, à 07:04 UTC
Prévision valable du 19 à 12 UTC au 20 à 12 UTC
Vent 8 kt de sud-ouest
Visibilité 10 km ou plus
Nuages épars à une hauteur de 2600 ft
Evoluant progressivement
du 20 à 09 UTC au 20 à 10 UTC
Vent 10 kt de nord-est

TAF: ZPPP 190704Z 1912/2012 22004MPS 9999 SCT026 TX24/2008Z TN16/1923Z BECMG 2009/2010 04005MPS

Observations et prévisions météorologiques de plus de 4000 aéroports (messages METAR et TAF).

Les stations disponibles sont représentées par des disques jaunes et rouges sur la carte.

Passer la souris dessus pour voir le nom de la station.

Cliquer dessus pour voir les observations et prévisions météorologiques.

Pour changer de carte: cliquez sur les boutons verts avec une croix noire pour zoomer, sur le bouton vert avec un tiret pour effectuer un zoom arrière, ou sur les flèches vertes pour les cartes adjacentes.


METAR-TAF: